Time,TemperatureF,DewpointF,PressureIn,WindDirection,WindDirectionDegrees,WindSpeedMPH,WindSpeedGustMPH,Humidity,HourlyPrecipIn,Conditions,Clouds,dailyrainin,SoftwareType,DateUTC
2013-05-03 00:03:00,33.0,20.0,30.48,SE,136,0.0,0.0,60,0.00,,,0.00,weatherlink.com 1.10,2013-05-03 06:03:00,
2013-05-03 00:18:00,33.6,21.0,30.48,SE,141,0.0,1.0,60,0.00,,,0.00,weatherlink.com 1.10,2013-05-03 06:18:00,
2013-05-03 00:33:00,33.7,21.0,30.47,South,184,0.0,2.0,60,0.00,,,0.00,weatherlink.com 1.10,2013-05-03 06:33:00,
2013-05-03 00:48:00,33.8,21.0,30.47,SSW,210,0.0,2.0,61,0.00,,,0.00,weatherlink.com 1.10,2013-05-03 06:48:00,
2013-05-03 01:03:00,33.7,22.0,30.45,SSW,210,0.0,3.0,62,0.00,,,0.00,weatherlink.com 1.10,2013-05-03 07:03:00,
2013-05-03 01:18:00,33.5,22.0,30.45,South,174,1.0,2.0,63,0.00,,,0.00,weatherlink.com 1.10,2013-05-03 07:18:00,
2013-05-03 01:33:00,33.3,22.0,30.44,SSW,212,0.0,1.0,64,0.00,,,0.00,weatherlink.com 1.10,2013-05-03 07:33:00,
2013-05-03 01:48:00,32.9,23.0,30.43,SE,141,0.0,1.0,66,0.00,,,0.00,weatherlink.com 1.10,2013-05-03 07:48:00,
2013-05-03 02:03:00,32.3,22.0,30.43,SSE,158,0.0,0.0,67,0.00,,,0.00,weatherlink.com 1.10,2013-05-03 08:03:00,
2013-05-03 02:18:00,31.8,22.0,30.42,SSE,158,0.0,0.0,68,0.00,,,0.00,weatherlink.com 1.10,2013-05-03 08:18:00,
2013-05-03 02:33:00,31.4,23.0,30.41,SSE,158,0.0,1.0,70,0.00,,,0.00,weatherlink.com 1.10,2013-05-03 08:33:00,
2013-05-03 02:48:00,31.7,23.0,30.41,South,188,0.0,1.0,71,0.00,,,0.00,weatherlink.com 1.10,2013-05-03 08:48:00,
2013-05-03 03:03:00,31.6,23.0,30.40,SW,226,0.0,1.0,71,0.00,,,0.00,weatherlink.com 1.10,2013-05-03 09:03:00,
2013-05-03 03:18:00,31.5,23.0,30.40,SSW,204,0.0,1.0,71,0.00,,,0.00,weatherlink.com 1.10,2013-05-03 09:18:00,
2013-05-03 03:33:00,30.8,23.0,30.40,SSW,204,0.0,0.0,72,0.00,,,0.00,weatherlink.com 1.10,2013-05-03 09:33:00,
2013-05-03 03:48:00,30.6,23.0,30.39,SSW,204,0.0,1.0,74,0.00,,,0.00,weatherlink.com 1.10,2013-05-03 09:48:00,
2013-05-03 04:03:00,30.0,23.0,30.39,SSW,204,0.0,0.0,76,0.00,,,0.00,weatherlink.com 1.10,2013-05-03 10:03:00,
2013-05-03 04:18:00,29.6,24.0,30.39,SSW,204,0.0,0.0,78,0.00,,,0.00,weatherlink.com 1.10,2013-05-03 10:18:00,
2013-05-03 04:33:00,29.8,24.0,30.38,SSW,197,0.0,1.0,78,0.00,,,0.00,weatherlink.com 1.10,2013-05-03 10:33:00,
2013-05-03 04:48:00,29.7,24.0,30.37,SSW,197,0.0,0.0,78,0.00,,,0.00,weatherlink.com 1.10,2013-05-03 10:48:00,
2013-05-03 05:03:00,29.7,23.0,30.37,SSE,165,0.0,1.0,77,0.00,,,0.00,weatherlink.com 1.10,2013-05-03 11:03:00,
2013-05-03 05:18:00,29.6,24.0,30.36,SSW,201,0.0,1.0,79,0.00,,,0.00,weatherlink.com 1.10,2013-05-03 11:18:00,
2013-05-03 05:34:00,29.8,24.0,30.35,SSW,195,1.0,1.0,78,0.00,,,0.00,weatherlink.com 1.10,2013-05-03 11:34:00,
2013-05-03 05:49:00,30.2,24.0,30.35,SSW,200,0.0,2.0,77,0.00,,,0.00,weatherlink.com 1.10,2013-05-03 11:49:00,
2013-05-03 06:04:00,30.4,24.0,30.35,SSW,200,1.0,3.0,77,0.00,,,0.00,weatherlink.com 1.10,2013-05-03 12:04:00,
2013-05-03 06:19:00,30.6,24.0,30.35,South,179,1.0,1.0,76,0.00,,,0.00,weatherlink.com 1.10,2013-05-03 12:19:00,
2013-05-03 06:34:00,30.9,24.0,30.34,SSW,212,1.0,2.0,76,0.00,,,0.00,weatherlink.com 1.10,2013-05-03 12:34:00,
2013-05-03 06:49:00,31.7,24.0,30.34,SSW,200,0.0,3.0,74,0.00,,,0.00,weatherlink.com 1.10,2013-05-03 12:49:00,
2013-05-03 07:04:00,33.0,24.0,30.34,SSW,198,2.0,3.0,69,0.00,,,0.00,weatherlink.com 1.10,2013-05-03 13:04:00,
2013-05-03 07:19:00,34.4,24.0,30.33,SW,229,0.0,3.0,65,0.00,,,0.00,weatherlink.com 1.10,2013-05-03 13:19:00,
2013-05-03 07:34:00,36.1,24.0,30.33,WSW,243,0.0,4.0,61,0.00,,,0.00,weatherlink.com 1.10,2013-05-03 13:34:00,
2013-05-03 07:49:00,37.8,23.0,30.32,SSW,193,0.0,6.0,56,0.00,,,0.00,weatherlink.com 1.10,2013-05-03 13:49:00,
2013-05-03 08:04:00,39.7,23.0,30.31,SSW,201,1.0,4.0,51,0.00,,,0.00,weatherlink.com 1.10,2013-05-03 14:04:00,
2013-05-03 08:19:00,42.5,24.0,30.30,SSW,203,2.0,4.0,49,0.00,,,0.00,weatherlink.com 1.10,2013-05-03 14:19:00,
2013-05-03 08:34:00,45.4,26.0,30.30,East,97,0.0,3.0,46,0.00,,,0.00,weatherlink.com 1.10,2013-05-03 14:34:00,
2013-05-03 08:49:00,47.5,25.0,30.28,SSW,210,0.0,3.0,41,0.00,,,0.00,weatherlink.com 1.10,2013-05-03 14:49:00,
2013-05-03 09:04:00,49.3,24.0,30.27,SSW,203,1.0,3.0,37,0.00,,,0.00,weatherlink.com 1.10,2013-05-03 15:04:00,
2013-05-03 09:19:00,50.8,25.0,30.26,SSW,210,0.0,4.0,36,0.00,,,0.00,weatherlink.com 1.10,2013-05-03 15:19:00,
2013-05-03 09:34:00,51.9,21.0,30.26,SSE,149,0.0,4.0,30,0.00,,,0.00,weatherlink.com 1.10,2013-05-03 15:34:00,
2013-05-03 09:49:00,53.3,21.0,30.25,North,6,1.0,3.0,28,0.00,,,0.00,weatherlink.com 1.10,2013-05-03 15:49:00,
2013-05-03 10:04:00,52.8,19.0,30.24,North,360,2.0,3.0,26,0.00,,,0.00,weatherlink.com 1.10,2013-05-03 16:04:00,
2013-05-03 10:19:00,52.8,19.0,30.24,ENE,64,0.0,4.0,26,0.00,,,0.00,weatherlink.com 1.10,2013-05-03 16:19:00,
2013-05-03 10:35:00,53.9,19.0,30.23,South,187,1.0,5.0,25,0.00,,,0.00,weatherlink.com 1.10,2013-05-03 16:35:00,
2013-05-03 10:50:00,56.5,20.0,30.23,ENE,65,0.0,4.0,24,0.00,,,0.00,weatherlink.com 1.10,2013-05-03 16:50:00,
2013-05-03 11:05:00,56.0,18.0,30.21,NNE,18,1.0,5.0,23,0.00,,,0.00,weatherlink.com 1.10,2013-05-03 17:05:00,
2013-05-03 11:20:00,57.0,19.0,30.21,East,83,2.0,4.0,23,0.00,,,0.00,weatherlink.com 1.10,2013-05-03 17:20:00,
2013-05-03 11:35:00,58.1,20.0,30.20,North,6,1.0,5.0,23,0.00,,,0.00,weatherlink.com 1.10,2013-05-03 17:35:00,
2013-05-03 11:50:00,59.0,22.0,30.19,East,81,2.0,5.0,24,0.00,,,0.00,weatherlink.com 1.10,2013-05-03 17:50:00,
2013-05-03 12:05:00,58.5,17.0,30.18,NE,40,3.0,8.0,20,0.00,,,0.00,weatherlink.com 1.10,2013-05-03 18:05:00,
2013-05-03 12:20:00,59.5,19.0,30.18,North,6,3.0,6.0,21,0.00,,,0.00,weatherlink.com 1.10,2013-05-03 18:20:00,
2013-05-03 12:35:00,60.4,18.0,30.17,ENE,58,3.0,6.0,19,0.00,,,0.00,weatherlink.com 1.10,2013-05-03 18:35:00,
2013-05-03 12:50:00,59.8,18.0,30.16,NE,36,3.0,10.0,20,0.00,,,0.00,weatherlink.com 1.10,2013-05-03 18:50:00,
2013-05-03 13:05:00,60.7,19.0,30.15,NNW,342,5.0,8.0,20,0.00,,,0.00,weatherlink.com 1.10,2013-05-03 19:05:00,
2013-05-03 13:20:00,60.6,19.0,30.15,NE,56,2.0,8.0,20,0.00,,,0.00,weatherlink.com 1.10,2013-05-03 19:20:00,
2013-05-03 13:35:00,60.6,21.0,30.14,NNE,25,3.0,9.0,22,0.00,,,0.00,weatherlink.com 1.10,2013-05-03 19:35:00,
2013-05-03 13:50:00,61.9,21.0,30.13,North,356,2.0,4.0,21,0.00,,,0.00,weatherlink.com 1.10,2013-05-03 19:50:00,
2013-05-03 14:05:00,61.6,21.0,30.13,NW,322,5.0,7.0,21,0.00,,,0.00,weatherlink.com 1.10,2013-05-03 20:05:00,
2013-05-03 14:20:00,60.7,22.0,30.12,NE,50,2.0,6.0,23,0.00,,,0.00,weatherlink.com 1.10,2013-05-03 20:20:00,
2013-05-03 14:35:00,61.4,21.0,30.12,NE,41,2.0,6.0,21,0.00,,,0.00,weatherlink.com 1.10,2013-05-03 20:35:00,
2013-05-03 14:50:00,61.1,23.0,30.11,NE,47,2.0,10.0,23,0.00,,,0.00,weatherlink.com 1.10,2013-05-03 20:50:00,
2013-05-03 15:05:00,61.9,22.0,30.09,ENE,75,2.0,6.0,22,0.00,,,0.00,weatherlink.com 1.10,2013-05-03 21:05:00,
2013-05-03 15:20:00,61.0,18.0,30.08,East,93,2.0,7.0,19,0.00,,,0.00,weatherlink.com 1.10,2013-05-03 21:20:00,
2013-05-03 15:35:00,61.1,21.0,30.07,NE,39,3.0,6.0,21,0.00,,,0.00,weatherlink.com 1.10,2013-05-03 21:35:00,
2013-05-03 15:50:00,62.4,23.0,30.06,NE,56,3.0,5.0,22,0.00,,,0.00,weatherlink.com 1.10,2013-05-03 21:50:00,
2013-05-03 16:06:00,62.2,22.0,30.06,NE,47,1.0,7.0,21,0.00,,,0.00,weatherlink.com 1.10,2013-05-03 22:06:00,
2013-05-03 16:21:00,62.2,23.0,30.05,NNE,27,1.0,3.0,22,0.00,,,0.00,weatherlink.com 1.10,2013-05-03 22:21:00,
2013-05-03 16:36:00,61.4,23.0,30.05,ENE,63,5.0,9.0,23,0.00,,,0.00,weatherlink.com 1.10,2013-05-03 22:36:00,
2013-05-03 16:51:00,60.8,23.0,30.05,North,354,2.0,8.0,23,0.00,,,0.00,weatherlink.com 1.10,2013-05-03 22:51:00,
2013-05-03 17:06:00,61.1,24.0,30.04,NNE,15,0.0,4.0,24,0.00,,,0.00,weatherlink.com 1.10,2013-05-03 23:06:00,
2013-05-03 17:21:00,62.0,24.0,30.04,NE,39,4.0,7.0,23,0.00,,,0.00,weatherlink.com 1.10,2013-05-03 23:21:00,
2013-05-03 17:36:00,60.7,22.0,30.04,East,85,0.0,4.0,23,0.00,,,0.00,weatherlink.com 1.10,2013-05-03 23:36:00,
2013-05-03 18:06:00,59.8,22.0,30.03,NW,323,1.0,5.0,23,0.00,,,0.00,weatherlink.com 1.10,2013-05-04 00:06:00,
2013-05-03 18:21:00,59.2,22.0,30.02,ENE,63,1.0,5.0,24,0.00,,,0.00,weatherlink.com 1.10,2013-05-04 00:21:00,
2013-05-03 18:36:00,58.9,23.0,30.03,North,349,0.0,2.0,25,0.00,,,0.00,weatherlink.com 1.10,2013-05-04 00:36:00,
2013-05-03 18:51:00,58.2,23.0,30.02,NNE,21,1.0,3.0,26,0.00,,,0.00,weatherlink.com 1.10,2013-05-04 00:51:00,
2013-05-03 19:06:00,57.9,24.0,30.02,North,5,1.0,3.0,27,0.00,,,0.00,weatherlink.com 1.10,2013-05-04 01:06:00,
2013-05-03 19:21:00,57.4,24.0,30.02,ENE,67,1.0,3.0,28,0.00,,,0.00,weatherlink.com 1.10,2013-05-04 01:21:00,
2013-05-03 19:36:00,56.3,23.0,30.02,ENE,73,0.0,4.0,27,0.00,,,0.00,weatherlink.com 1.10,2013-05-04 01:36:00,
2013-05-03 19:51:00,55.5,21.0,30.02,NNW,343,0.0,3.0,26,0.00,,,0.00,weatherlink.com 1.10,2013-05-04 01:51:00,
2013-05-03 20:06:00,54.6,21.0,30.03,SE,124,0.0,2.0,27,0.00,,,0.00,weatherlink.com 1.10,2013-05-04 02:06:00,
2013-05-03 20:21:00,53.6,22.0,30.03,ESE,109,0.0,2.0,29,0.00,,,0.00,weatherlink.com 1.10,2013-05-04 02:21:00,
2013-05-03 20:36:00,52.8,23.0,30.03,East,98,0.0,1.0,31,0.00,,,0.00,weatherlink.com 1.10,2013-05-04 02:36:00,
2013-05-03 20:51:00,52.0,22.0,30.04,ESE,102,0.0,1.0,31,0.00,,,0.00,weatherlink.com 1.10,2013-05-04 02:51:00,
2013-05-03 21:06:00,51.4,22.0,30.04,ESE,102,0.0,1.0,31,0.00,,,0.00,weatherlink.com 1.10,2013-05-04 03:06:00,
2013-05-03 21:21:00,50.7,22.0,30.05,East,98,0.0,1.0,32,0.00,,,0.00,weatherlink.com 1.10,2013-05-04 03:21:00,
2013-05-03 21:37:00,49.8,22.0,30.06,East,99,0.0,0.0,33,0.00,,,0.00,weatherlink.com 1.10,2013-05-04 03:37:00,
2013-05-03 21:51:00,49.4,21.0,30.06,East,98,0.0,1.0,33,0.00,,,0.00,weatherlink.com 1.10,2013-05-04 03:51:00,
2013-05-03 22:06:00,48.5,21.0,30.06,East,98,0.0,0.0,34,0.00,,,0.00,weatherlink.com 1.10,2013-05-04 04:06:00,
2013-05-03 22:21:00,48.0,21.0,30.05,East,100,0.0,1.0,35,0.00,,,0.00,weatherlink.com 1.10,2013-05-04 04:21:00,
2013-05-03 22:36:00,47.3,22.0,30.05,East,98,0.0,1.0,37,0.00,,,0.00,weatherlink.com 1.10,2013-05-04 04:36:00,
2013-05-03 22:51:00,46.1,23.0,30.05,East,99,0.0,0.0,40,0.00,,,0.00,weatherlink.com 1.10,2013-05-04 04:51:00,
2013-05-03 23:06:00,44.5,23.0,30.05,East,101,0.0,1.0,42,0.00,,,0.00,weatherlink.com 1.10,2013-05-04 05:06:00,
2013-05-03 23:21:00,43.8,24.0,30.05,East,101,0.0,0.0,45,0.00,,,0.00,weatherlink.com 1.10,2013-05-04 05:21:00,
2013-05-03 23:36:00,43.8,24.0,30.05,East,97,0.0,0.0,46,0.00,,,0.00,weatherlink.com 1.10,2013-05-04 05:36:00,
2013-05-03 23:51:00,42.9,24.0,30.04,East,97,0.0,0.0,48,0.00,,,0.00,weatherlink.com 1.10,2013-05-04 05:51:00,